Time;durP1;ratioP1;P1;durP2;ratioP2;P2;SDS_P1;SDS_P2;PMS_P1;PMS_P2;Temp;Humidity;BMP_temperature;BMP_pressure;BME280_temperature;BME280_humidity;BME280_pressure;Samples;Min_cycle;Max_cycle;Signal;HPM_P1;HPM_P2
2021/11/23 00:00:10;;;;;;;5.95;1.95;;;;;;;-144.57;100.00;62443.72;5053643;28;20124;-65
2021/11/23 00:02:40;;;;;;;3.85;2.20;;;;;;;-144.57;100.00;62443.72;5053916;28;20041;-64
2021/11/23 00:05:06;;;;;;;2.83;2.00;;;;;;;-144.57;100.00;62443.72;5053959;28;20037;-64
2021/11/23 00:07:33;;;;;;;4.22;2.08;;;;;;;-144.57;100.00;62443.72;5053956;28;20049;-64
2021/11/23 00:09:58;;;;;;;3.10;2.20;;;;;;;-144.57;100.00;62443.72;5052630;28;20060;-65
2021/11/23 00:12:24;;;;;;;6.50;2.50;;;;;;;-144.57;100.00;62443.72;5053597;28;20048;-65
2021/11/23 00:14:50;;;;;;;5.57;2.40;;;;;;;-144.57;100.00;62443.72;5053609;28;20099;-65
2021/11/23 00:17:17;;;;;;;3.58;2.03;;;;;;;-144.57;100.00;62443.72;5053552;28;20033;-64
2021/11/23 00:19:43;;;;;;;3.53;2.15;;;;;;;-144.57;100.00;62443.72;5053381;28;20080;-64
2021/11/23 00:22:09;;;;;;;3.92;2.05;;;;;;;-144.57;100.00;62443.72;5053408;28;20128;-65
2021/11/23 00:24:35;;;;;;;5.25;2.40;;;;;;;-144.57;100.00;62443.72;5052178;28;20123;-65
2021/11/23 00:27:01;;;;;;;5.30;2.25;;;;;;;-144.57;100.00;62443.72;5051749;28;20525;-65
2021/11/23 00:29:27;;;;;;;3.03;1.90;;;;;;;-144.57;100.00;62443.72;5052035;28;20055;-65
2021/11/23 00:31:52;;;;;;;3.95;1.95;;;;;;;-144.57;100.00;62443.72;5052978;28;20139;-65
2021/11/23 00:34:18;;;;;;;3.85;2.35;;;;;;;-144.57;100.00;62443.72;5052011;28;20052;-63
2021/11/23 00:36:44;;;;;;;6.78;2.65;;;;;;;-144.57;100.00;62443.72;5035032;28;20072;-64
2021/11/23 00:39:10;;;;;;;5.05;2.40;;;;;;;-144.57;100.00;62443.72;5053104;28;20041;-65
2021/11/23 00:41:35;;;;;;;4.68;2.25;;;;;;;-144.57;100.00;62443.72;5053055;28;20509;-64
2021/11/23 00:44:01;;;;;;;4.18;2.22;;;;;;;-144.57;100.00;62443.72;5053281;28;20098;-64
2021/11/23 00:46:27;;;;;;;3.95;2.72;;;;;;;-144.57;100.00;62443.72;5051581;28;20534;-64
2021/11/23 00:48:53;;;;;;;6.30;2.28;;;;;;;-144.57;100.00;62443.72;5053126;28;20159;-64
2021/11/23 00:51:19;;;;;;;4.55;2.08;;;;;;;-144.57;100.00;62443.72;5052927;28;20405;-65
2021/11/23 00:53:44;;;;;;;3.17;1.90;;;;;;;-144.57;100.00;62443.72;5002105;28;20060;-64
2021/11/23 00:56:10;;;;;;;3.95;2.28;;;;;;;-144.57;100.00;62443.72;5052553;28;20044;-65
2021/11/23 00:58:36;;;;;;;3.10;2.33;;;;;;;-144.57;100.00;62443.72;5052852;28;20041;-64
2021/11/23 01:01:02;;;;;;;4.53;2.60;;;;;;;-144.57;100.00;62443.72;5052484;28;20088;-65
2021/11/23 01:03:32;;;;;;;3.15;2.10;;;;;;;-144.57;100.00;62443.72;5051250;28;20453;-64
2021/11/23 01:05:59;;;;;;;4.72;2.35;;;;;;;-144.57;100.00;62443.72;5052635;28;20120;-64
2021/11/23 01:08:27;;;;;;;4.43;2.42;;;;;;;-144.57;100.00;62443.72;5034778;28;20052;-65
2021/11/23 01:10:54;;;;;;;7.20;2.50;;;;;;;-144.57;100.00;62443.72;5051133;28;20045;-65
2021/11/23 01:13:20;;;;;;;4.28;2.30;;;;;;;-144.57;100.00;62443.72;5052502;28;20048;-66
2021/11/23 01:15:46;;;;;;;6.88;2.38;;;;;;;-144.57;100.00;62443.72;5052360;28;20047;-65
2021/11/23 01:18:12;;;;;;;4.00;2.30;;;;;;;-144.57;100.00;62443.72;5052491;28;20379;-64
2021/11/23 01:20:38;;;;;;;4.95;2.47;;;;;;;-144.57;100.00;62443.72;5051931;28;20045;-64
2021/11/23 01:23:06;;;;;;;9.70;2.78;;;;;;;-144.57;100.00;62443.72;5052175;28;20136;-65
2021/11/23 01:25:33;;;;;;;6.43;2.63;;;;;;;-144.57;100.00;62443.72;5051927;28;20045;-65
2021/11/23 01:27:59;;;;;;;6.40;2.45;;;;;;;-144.57;100.00;62443.72;5050985;28;20152;-65
2021/11/23 01:30:24;;;;;;;5.80;2.60;;;;;;;-144.57;100.00;62443.72;5050705;28;20127;-64
2021/11/23 01:32:50;;;;;;;3.50;2.22;;;;;;;-144.57;100.00;62443.72;5050849;28;20096;-65
2021/11/23 01:35:16;;;;;;;5.45;2.40;;;;;;;-144.57;100.00;62443.72;5034052;28;20420;-65
2021/11/23 01:37:43;;;;;;;2.95;2.13;;;;;;;-144.57;100.00;62443.72;5052003;28;20554;-65
2021/11/23 01:40:11;;;;;;;4.75;2.47;;;;;;;-144.57;100.00;62443.72;5051974;28;20079;-65
2021/11/23 01:42:37;;;;;;;6.68;2.42;;;;;;;-144.57;100.00;62443.72;5051990;28;20169;-64
2021/11/23 01:45:05;;;;;;;5.15;2.63;;;;;;;-144.57;100.00;62443.72;5051869;28;20041;-65
2021/11/23 01:47:31;;;;;;;6.57;2.78;;;;;;;-144.57;100.00;62443.72;5051641;28;20048;-65
2021/11/23 01:49:57;;;;;;;6.80;2.55;;;;;;;-144.57;100.00;62443.72;5051800;28;20680;-64
2021/11/23 01:52:23;;;;;;;8.32;2.50;;;;;;;-144.57;100.00;62443.72;5033021;28;20069;-65
2021/11/23 01:54:51;;;;;;;7.53;2.63;;;;;;;-144.57;100.00;62443.72;5051674;28;20513;-64
2021/11/23 01:57:17;;;;;;;3.13;1.92;;;;;;;-144.57;100.00;62443.72;5051450;28;20043;-65
2021/11/23 01:59:44;;;;;;;3.60;2.33;;;;;;;-144.57;100.00;62443.72;5051337;28;20048;-63
2021/11/23 02:02:10;;;;;;;12.65;2.85;;;;;;;-144.57;100.00;62443.72;5051618;28;20047;-65
2021/11/23 02:04:36;;;;;;;3.42;2.10;;;;;;;-144.57;100.00;62443.72;5050395;28;20037;-65
2021/11/23 02:07:02;;;;;;;4.05;2.78;;;;;;;-144.57;100.00;62443.72;5051514;28;20414;-65
2021/11/23 02:09:28;;;;;;;4.32;2.28;;;;;;;-144.57;100.00;62443.72;5051323;28;20036;-65
2021/11/23 02:11:54;;;;;;;4.20;2.10;;;;;;;-144.57;100.00;62443.72;5051203;28;20127;-64
2021/11/23 02:14:22;;;;;;;5.10;2.50;;;;;;;-144.57;100.00;62443.72;5050316;28;20048;-64
2021/11/23 02:16:48;;;;;;;9.70;2.45;;;;;;;-144.57;100.00;62443.72;5050187;28;20045;-64
2021/11/23 02:19:15;;;;;;;3.45;2.10;;;;;;;-144.57;100.00;62443.72;5033748;28;20428;-65
2021/11/23 02:21:41;;;;;;;4.78;2.20;;;;;;;-144.57;100.00;62443.72;5049937;28;20041;-64
2021/11/23 02:24:07;;;;;;;4.10;2.20;;;;;;;-144.57;100.00;62443.72;5050226;28;20521;-65
2021/11/23 02:26:32;;;;;;;4.75;2.60;;;;;;;-144.57;100.00;62443.72;5051149;28;20057;-65
2021/11/23 02:28:59;;;;;;;6.43;2.50;;;;;;;-144.57;100.00;62443.72;5049993;28;20056;-65
2021/11/23 02:31:25;;;;;;;3.17;2.25;;;;;;;-144.57;100.00;62443.72;5049676;28;20417;-65
2021/11/23 02:33:51;;;;;;;7.18;2.67;;;;;;;-144.57;100.00;62443.72;5051475;28;20052;-65
2021/11/23 02:36:17;;;;;;;3.20;2.28;;;;;;;-144.57;100.00;62443.72;5051019;28;20037;-65
2021/11/23 02:38:48;;;;;;;4.18;2.28;;;;;;;-144.57;100.00;62443.72;5051533;28;20057;-65
2021/11/23 02:41:16;;;;;;;5.97;2.10;;;;;;;-144.57;100.00;62443.72;5051348;28;20143;-64
2021/11/23 02:43:43;;;;;;;5.40;2.42;;;;;;;-144.57;100.00;62443.72;5051366;28;20098;-64
2021/11/23 02:46:09;;;;;;;4.35;2.10;;;;;;;-144.57;100.00;62443.72;5050957;28;20136;-65
2021/11/23 02:48:37;;;;;;;4.78;2.22;;;;;;;-144.57;100.00;62443.72;5051271;28;20464;-64
2021/11/23 02:53:31;;;;;;;4.20;2.38;;;;;;;-144.57;100.00;62443.72;5051028;28;20099;-65
2021/11/23 02:55:58;;;;;;;4.03;2.20;;;;;;;-144.57;100.00;62443.72;5050959;28;20033;-64
2021/11/23 02:58:25;;;;;;;4.57;2.38;;;;;;;-144.57;100.00;62443.72;5051069;28;20055;-63
2021/11/23 03:00:51;;;;;;;4.20;2.10;;;;;;;-144.57;100.00;62443.72;5050505;28;20589;-64
2021/11/23 03:03:17;;;;;;;3.97;2.13;;;;;;;-144.57;100.00;62443.72;5034796;28;20140;-64
2021/11/23 03:05:43;;;;;;;4.68;2.10;;;;;;;-144.57;100.00;62443.72;5054681;28;20037;-64
2021/11/23 03:08:09;;;;;;;3.17;1.85;;;;;;;-144.57;100.00;62443.72;5054967;28;20044;-65
2021/11/23 03:10:35;;;;;;;3.63;1.90;;;;;;;-144.57;100.00;62443.72;5053333;28;20041;-65
2021/11/23 03:13:01;;;;;;;5.65;2.15;;;;;;;-144.57;100.00;62443.72;5054933;28;20431;-64
2021/11/23 03:15:28;;;;;;;4.22;2.15;;;;;;;-144.57;100.00;62443.72;5053223;28;20406;-66
2021/11/23 03:17:57;;;;;;;6.20;2.47;;;;;;;-144.57;100.00;62443.72;5054818;28;20052;-64
2021/11/23 03:20:24;;;;;;;4.65;2.40;;;;;;;-144.57;100.00;62443.72;5054486;28;20079;-65
2021/11/23 03:22:51;;;;;;;3.78;2.40;;;;;;;-144.57;100.00;62443.72;5053247;28;20086;-65
2021/11/23 03:25:17;;;;;;;4.00;2.28;;;;;;;-144.57;100.00;62443.72;5054360;28;20044;-65
2021/11/23 03:27:44;;;;;;;8.32;2.30;;;;;;;-144.57;100.00;62443.72;5036461;28;20363;-65
2021/11/23 03:30:12;;;;;;;4.38;2.13;;;;;;;-144.57;100.00;62443.72;5054638;28;20052;-63
2021/11/23 03:32:38;;;;;;;4.10;2.70;;;;;;;-144.57;100.00;62443.72;5054179;28;20060;-65
2021/11/23 03:35:05;;;;;;;4.68;2.45;;;;;;;-144.57;100.00;62443.72;5054957;28;20044;-64
2021/11/23 03:37:31;;;;;;;4.88;2.15;;;;;;;-144.57;100.00;62443.72;5054202;28;20057;-64
2021/11/23 03:39:57;;;;;;;4.63;2.50;;;;;;;-144.57;100.00;62443.72;5055134;28;20062;-64
2021/11/23 03:42:24;;;;;;;4.55;2.05;;;;;;;-144.57;100.00;62443.72;5055200;28;20472;-63
2021/11/23 03:44:50;;;;;;;3.70;2.30;;;;;;;-144.57;100.00;62443.72;5054949;28;20132;-65
2021/11/23 03:47:17;;;;;;;2.75;2.17;;;;;;;-144.57;100.00;62443.72;5055228;28;20049;-64
2021/11/23 03:49:45;;;;;;;3.75;2.35;;;;;;;-144.57;100.00;62443.72;5054209;28;20040;-64
2021/11/23 03:52:10;;;;;;;5.88;3.53;;;;;;;-144.57;100.00;62443.72;5036394;28;20098;-64
2021/11/23 03:54:37;;;;;;;6.13;2.67;;;;;;;-144.57;100.00;62443.72;5054195;28;20041;-64
2021/11/23 03:57:03;;;;;;;3.38;1.90;;;;;;;-144.57;100.00;62443.72;5053871;28;20460;-65
2021/11/23 03:59:29;;;;;;;4.50;2.20;;;;;;;-144.57;100.00;62443.72;5053889;28;20040;-65
2021/11/23 04:01:55;;;;;;;4.97;2.50;;;;;;;-144.57;100.00;62443.72;5035915;28;20087;-65
2021/11/23 04:04:21;;;;;;;4.90;2.47;;;;;;;-144.57;100.00;62443.72;5054214;28;20426;-64
2021/11/23 04:06:47;;;;;;;3.13;2.15;;;;;;;-144.57;100.00;62443.72;5052242;28;20056;-65
2021/11/23 04:09:12;;;;;;;5.95;2.47;;;;;;;-144.57;100.00;62443.72;5052599;28;20057;-64
2021/11/23 04:11:38;;;;;;;6.95;2.38;;;;;;;-144.57;100.00;62443.72;5053844;28;20063;-65
2021/11/23 04:14:04;;;;;;;4.30;2.13;;;;;;;-144.57;100.00;62443.72;5053310;28;20068;-64
2021/11/23 04:16:30;;;;;;;4.85;2.38;;;;;;;-144.57;100.00;62443.72;5052246;28;20387;-64
2021/11/23 04:18:56;;;;;;;3.65;2.13;;;;;;;-144.57;100.00;62443.72;5052199;28;20049;-64
2021/11/23 04:21:22;;;;;;;4.82;2.22;;;;;;;-144.57;100.00;62443.72;5053642;28;20114;-65
2021/11/23 04:23:48;;;;;;;5.80;2.60;;;;;;;-144.57;100.00;62443.72;5053287;28;20056;-65
2021/11/23 04:26:14;;;;;;;3.55;2.00;;;;;;;-144.57;100.00;62443.72;5053233;28;20056;-66
2021/11/23 04:28:40;;;;;;;3.28;2.20;;;;;;;-144.57;100.00;62443.72;5053632;28;20041;-65
2021/11/23 04:31:06;;;;;;;4.00;2.28;;;;;;;-144.57;100.00;62443.72;5053333;28;20044;-65
2021/11/23 04:33:31;;;;;;;4.35;2.20;;;;;;;-144.57;100.00;62443.72;5053546;28;20040;-65
2021/11/23 04:35:57;;;;;;;4.72;2.35;;;;;;;-144.57;100.00;62443.72;5052169;28;20044;-64
2021/11/23 04:38:23;;;;;;;5.55;2.30;;;;;;;-144.57;100.00;62443.72;5053606;28;20045;-65
2021/11/23 04:40:49;;;;;;;3.65;2.00;;;;;;;-144.57;100.00;62443.72;5035280;28;20202;-63
2021/11/23 04:43:15;;;;;;;9.10;2.63;;;;;;;-144.57;100.00;62443.72;5053472;28;20092;-63
2021/11/23 04:45:41;;;;;;;4.60;2.42;;;;;;;-144.57;100.00;62443.72;5053224;28;20594;-64
2021/11/23 04:48:07;;;;;;;5.30;2.10;;;;;;;-144.57;100.00;62443.72;5053121;28;20053;-63
2021/11/23 04:50:34;;;;;;;4.45;2.28;;;;;;;-144.57;100.00;62443.72;5051562;28;20040;-62
2021/11/23 04:53:02;;;;;;;4.15;2.00;;;;;;;-144.57;100.00;62443.72;5035140;28;20052;-63
2021/11/23 04:55:29;;;;;;;5.88;1.95;;;;;;;-144.57;100.00;62443.72;5051427;28;20615;-65
2021/11/23 04:57:54;;;;;;;5.63;2.63;;;;;;;-144.57;100.00;62443.72;5053041;28;20127;-64
2021/11/23 05:00:20;;;;;;;3.65;2.08;;;;;;;-144.57;100.00;62443.72;5052759;28;20072;-64
2021/11/23 05:02:46;;;;;;;7.47;2.58;;;;;;;-144.57;100.00;62443.72;5052808;28;20410;-63
2021/11/23 05:05:14;;;;;;;2.47;1.90;;;;;;;-144.57;100.00;62443.72;5052404;28;20533;-65
2021/11/23 05:07:40;;;;;;;6.18;2.67;;;;;;;-144.57;100.00;62443.72;5052581;28;20041;-64
2021/11/23 05:10:07;;;;;;;4.55;1.83;;;;;;;-144.57;100.00;62443.72;5051310;28;20693;-63
2021/11/23 05:12:34;;;;;;;4.28;2.38;;;;;;;-144.57;100.00;62443.72;5052159;28;20518;-62
2021/11/23 05:15:00;;;;;;;3.63;2.10;;;;;;;-144.57;100.00;62443.72;5052606;28;20072;-62
2021/11/23 05:17:26;;;;;;;4.30;2.10;;;;;;;-144.57;100.00;62443.72;5050909;28;20103;-64
2021/11/23 05:19:53;;;;;;;5.80;2.42;;;;;;;-144.57;100.00;62443.72;5050928;28;20076;-64
2021/11/23 05:22:19;;;;;;;3.70;2.30;;;;;;;-144.57;100.00;62443.72;5052362;28;20072;-63
2021/11/23 05:24:45;;;;;;;3.65;2.17;;;;;;;-144.57;100.00;62443.72;5050855;28;20107;-61
2021/11/23 05:27:11;;;;;;;4.35;2.30;;;;;;;-144.57;100.00;62443.72;5016764;28;20084;-64
2021/11/23 05:29:37;;;;;;;2.90;1.85;;;;;;;-144.57;100.00;62443.72;5051146;28;20076;-65
2021/11/23 05:32:03;;;;;;;4.95;2.35;;;;;;;-144.57;100.00;62443.72;5052421;28;20395;-64
2021/11/23 05:34:29;;;;;;;2.65;1.95;;;;;;;-144.57;100.00;62443.72;5051045;28;20041;-63
2021/11/23 05:36:55;;;;;;;3.72;2.17;;;;;;;-144.57;100.00;62443.72;5051948;28;20076;-64
2021/11/23 05:39:21;;;;;;;7.30;2.60;;;;;;;-144.57;100.00;62443.72;5051942;28;20071;-62
2021/11/23 05:41:49;;;;;;;7.10;3.35;;;;;;;-144.57;100.00;62443.72;5050912;28;20465;-65
2021/11/23 05:44:16;;;;;;;6.22;2.45;;;;;;;-144.57;100.00;62443.72;5052132;28;20052;-63
2021/11/23 05:46:41;;;;;;;4.32;2.33;;;;;;;-144.57;100.00;62443.72;5033934;28;20419;-63
2021/11/23 05:49:07;;;;;;;5.95;2.28;;;;;;;-144.57;100.00;62443.72;5049503;28;20135;-63
2021/11/23 05:51:34;;;;;;;3.83;2.28;;;;;;;-144.57;100.00;62443.72;5024768;28;20137;-63
2021/11/23 05:54:00;;;;;;;4.20;2.22;;;;;;;-144.57;100.00;62443.72;5030327;28;20556;-63
2021/11/23 05:56:27;;;;;;;3.75;2.30;;;;;;;-144.57;100.00;62443.72;5027516;28;20049;-66
2021/11/23 05:58:53;;;;;;;4.85;2.40;;;;;;;-144.57;100.00;62443.72;5026952;28;20057;-64
2021/11/23 06:01:18;;;;;;;3.22;2.35;;;;;;;-144.57;100.00;62443.72;5029211;28;20423;-65
2021/11/23 06:03:44;;;;;;;7.47;2.10;;;;;;;-144.57;100.00;62443.72;5043496;28;20049;-64
2021/11/23 06:06:13;;;;;;;4.70;1.98;;;;;;;-144.57;100.00;62443.72;5025874;28;20453;-64
2021/11/23 06:08:40;;;;;;;5.50;2.10;;;;;;;-144.57;100.00;62443.72;5029985;28;20049;-64
2021/11/23 06:11:06;;;;;;;4.88;2.50;;;;;;;-144.57;100.00;62443.72;5028220;28;20415;-63
2021/11/23 06:13:32;;;;;;;3.63;2.42;;;;;;;-144.57;100.00;62443.72;5029926;28;20045;-64
2021/11/23 06:15:58;;;;;;;5.18;2.40;;;;;;;-144.57;100.00;62443.72;5029778;28;20037;-65
2021/11/23 06:18:24;;;;;;;4.45;2.67;;;;;;;-144.57;100.00;62443.72;5027461;28;20677;-65
2021/11/23 06:20:53;;;;;;;5.13;2.55;;;;;;;-144.57;100.00;62443.72;5026856;28;20045;-64
2021/11/23 06:23:20;;;;;;;5.47;2.67;;;;;;;-144.57;100.00;62443.72;5026074;28;20088;-65
2021/11/23 06:25:48;;;;;;;4.03;2.40;;;;;;;-144.57;100.00;62443.72;5026369;28;20038;-65
2021/11/23 06:28:15;;;;;;;5.63;2.55;;;;;;;-144.57;100.00;62443.72;5027443;28;20061;-64
2021/11/23 06:30:41;;;;;;;9.90;2.85;;;;;;;-144.57;100.00;62443.72;5026561;28;20044;-65
2021/11/23 06:33:07;;;;;;;4.13;2.25;;;;;;;-144.57;100.00;62443.72;5026228;28;20459;-65
2021/11/23 06:35:34;;;;;;;2.88;2.03;;;;;;;-144.57;100.00;62443.72;5026070;28;20545;-64
2021/11/23 06:37:59;;;;;;;5.25;2.80;;;;;;;-144.57;100.00;62443.72;5030805;28;20049;-65
2021/11/23 06:40:25;;;;;;;5.35;2.38;;;;;;;-144.57;100.00;62443.72;5029937;28;20049;-63
2021/11/23 06:42:51;;;;;;;5.88;2.53;;;;;;;-144.57;100.00;62443.72;5032324;28;20077;-63
2021/11/23 06:45:16;;;;;;;5.85;2.92;;;;;;;-144.57;100.00;62443.72;5030686;28;20048;-64
2021/11/23 06:47:42;;;;;;;4.75;2.20;;;;;;;-144.57;100.00;62443.72;5032088;28;20361;-65
2021/11/23 06:50:09;;;;;;;7.07;2.95;;;;;;;-144.57;100.00;62443.72;5031763;28;20044;-65
2021/11/23 06:52:35;;;;;;;6.63;2.63;;;;;;;-144.57;100.00;62443.72;5030555;28;20072;-64
2021/11/23 06:55:01;;;;;;;4.55;2.45;;;;;;;-144.57;100.00;62443.72;5028908;28;20470;-65
2021/11/23 06:57:27;;;;;;;10.70;3.10;;;;;;;-144.57;100.00;62443.72;5030391;28;20051;-65
2021/11/23 06:59:53;;;;;;;4.15;2.30;;;;;;;-144.57;100.00;62443.72;5031008;28;20041;-65
2021/11/23 07:02:19;;;;;;;9.93;2.88;;;;;;;-144.57;100.00;62443.72;5032805;28;20046;-65
2021/11/23 07:04:44;;;;;;;4.80;2.53;;;;;;;-144.57;100.00;62443.72;5029970;28;20041;-64
2021/11/23 07:07:10;;;;;;;6.47;2.88;;;;;;;-144.57;100.00;62443.72;5030769;28;20075;-65
2021/11/23 07:09:36;;;;;;;5.05;2.67;;;;;;;-144.57;100.00;62443.72;5030610;28;20422;-65
2021/11/23 07:12:04;;;;;;;6.70;2.90;;;;;;;-144.57;100.00;62443.72;5029631;28;20464;-65
2021/11/23 07:14:30;;;;;;;7.13;3.05;;;;;;;-144.57;100.00;62443.72;5029154;28;20563;-68
2021/11/23 07:16:56;;;;;;;6.38;2.70;;;;;;;-144.57;100.00;62443.72;5032119;28;20042;-65
2021/11/23 07:19:21;;;;;;;7.72;3.10;;;;;;;-144.57;100.00;62443.72;5029651;28;20049;-65
2021/11/23 07:21:47;;;;;;;6.40;2.83;;;;;;;-144.57;100.00;62443.72;5030947;28;20034;-65
2021/11/23 07:24:13;;;;;;;11.50;3.70;;;;;;;-144.57;100.00;62443.72;5030589;28;20506;-65
2021/11/23 07:26:39;;;;;;;6.50;2.88;;;;;;;-144.57;100.00;62443.72;5030541;28;20534;-66
2021/11/23 07:29:06;;;;;;;5.00;2.75;;;;;;;-144.57;100.00;62443.72;5031087;28;20395;-66
2021/11/23 07:31:32;;;;;;;6.50;3.17;;;;;;;-144.57;100.00;62443.72;5030972;28;20128;-65
2021/11/23 07:33:58;;;;;;;6.50;2.88;;;;;;;-144.57;100.00;62443.72;5031166;28;20192;-65
2021/11/23 07:36:24;;;;;;;5.95;3.20;;;;;;;-144.57;100.00;62443.72;5029916;28;20037;-66
2021/11/23 07:38:52;;;;;;;9.98;4.18;;;;;;;-144.57;100.00;62443.72;5028551;28;20125;-65
2021/11/23 07:41:20;;;;;;;6.20;3.10;;;;;;;-144.57;100.00;62443.72;4995198;28;20044;-66
2021/11/23 07:43:46;;;;;;;8.90;3.53;;;;;;;-144.57;100.00;62443.72;5030848;28;20064;-66
2021/11/23 07:46:12;;;;;;;7.30;3.05;;;;;;;-144.57;100.00;62443.72;5029139;28;20081;-67
2021/11/23 07:48:38;;;;;;;6.95;3.05;;;;;;;-144.57;100.00;62443.72;5030045;28;20107;-67
2021/11/23 07:51:04;;;;;;;7.13;3.25;;;;;;;-144.57;100.00;62443.72;5029637;28;20069;-65
2021/11/23 07:53:31;;;;;;;7.57;3.13;;;;;;;-144.57;100.00;62443.72;5029760;28;20053;-65
2021/11/23 07:55:57;;;;;;;8.73;3.63;;;;;;;-144.57;100.00;62443.72;5029807;28;20451;-66
2021/11/23 07:58:22;;;;;;;6.38;3.67;;;;;;;-144.57;100.00;62443.72;5028903;28;20045;-66
2021/11/23 08:00:48;;;;;;;7.03;3.78;;;;;;;-144.57;100.00;62443.72;5029752;28;20213;-66
2021/11/23 08:03:14;;;;;;;9.13;4.30;;;;;;;-144.57;100.00;62443.72;5028856;28;20049;-65
2021/11/23 08:05:41;;;;;;;9.60;4.72;;;;;;;-144.57;100.00;62443.72;5031332;28;20106;-65
2021/11/23 08:08:09;;;;;;;7.07;3.30;;;;;;;-144.57;100.00;62443.72;5029206;28;20403;-66
2021/11/23 08:10:35;;;;;;;6.70;3.75;;;;;;;-144.57;100.00;62443.72;5028404;28;20042;-66
2021/11/23 08:13:01;;;;;;;6.53;3.10;;;;;;;-144.57;100.00;62443.72;5045766;28;20076;-66
2021/11/23 08:15:28;;;;;;;8.45;3.38;;;;;;;-144.57;100.00;62443.72;5030411;28;20068;-67
2021/11/23 08:17:53;;;;;;;5.95;3.20;;;;;;;-144.57;100.00;62443.72;5029650;28;20041;-66
2021/11/23 08:20:19;;;;;;;6.40;2.92;;;;;;;-144.57;100.00;62443.72;5028992;28;20048;-70
2021/11/23 08:22:48;;;;;;;6.45;3.00;;;;;;;-144.57;100.00;62443.72;5030159;28;20052;-65
2021/11/23 08:25:14;;;;;;;5.43;2.75;;;;;;;-144.57;100.00;62443.72;5030209;28;20049;-64
2021/11/23 08:27:40;;;;;;;4.65;3.00;;;;;;;-144.57;100.00;62443.72;5030995;28;20110;-65
2021/11/23 08:30:08;;;;;;;5.10;3.03;;;;;;;-144.57;100.00;62443.72;5030971;28;20045;-65
2021/11/23 08:32:34;;;;;;;9.52;4.00;;;;;;;-144.57;100.00;62443.72;5030084;28;20499;-64
2021/11/23 08:35:00;;;;;;;6.15;3.00;;;;;;;-144.57;100.00;62443.72;5029265;28;20059;-67
2021/11/23 08:37:29;;;;;;;6.10;2.75;;;;;;;-144.57;100.00;62443.72;5023793;28;20041;-66
2021/11/23 08:39:55;;;;;;;6.18;3.25;;;;;;;-144.57;100.00;62443.72;5047672;28;20179;-66
2021/11/23 08:42:22;;;;;;;8.43;3.40;;;;;;;-144.57;100.00;62443.72;5049667;28;20497;-67
2021/11/23 08:44:48;;;;;;;6.78;2.95;;;;;;;-144.57;100.00;62443.72;5048214;28;20045;-66
2021/11/23 08:47:15;;;;;;;5.18;3.05;;;;;;;-144.57;100.00;62443.72;5048198;28;20037;-66
2021/11/23 08:49:42;;;;;;;13.40;5.82;;;;;;;-144.57;100.00;62443.72;5048433;28;20043;-65
2021/11/23 08:52:09;;;;;;;6.30;3.40;;;;;;;-144.57;100.00;62443.72;5046709;28;20163;-66
2021/11/23 08:54:35;;;;;;;7.60;3.28;;;;;;;-144.57;100.00;62443.72;5050543;28;20052;-65
2021/11/23 08:57:05;;;;;;;5.43;3.10;;;;;;;-144.57;100.00;62443.72;5050532;28;20405;-65
2021/11/23 08:59:34;;;;;;;;;;;;;;;-144.57;100.00;62443.72;5049344;28;20051;-65
2021/11/23 09:02:00;;;;;;;6.38;3.00;;;;;;;-144.57;100.00;62443.72;5047872;28;20704;-66
2021/11/23 09:04:28;;;;;;;6.32;3.50;;;;;;;-144.57;100.00;62443.72;5048592;28;20160;-66
2021/11/23 09:06:55;;;;;;;7.28;2.55;;;;;;;-144.57;100.00;62443.72;5028335;28;20421;-66
2021/11/23 09:09:26;;;;;;;5.22;2.72;;;;;;;-144.57;100.00;62443.72;5047117;28;20098;-66
2021/11/23 09:11:52;;;;;;;4.95;2.08;;;;;;;-144.57;100.00;62443.72;5047772;28;20521;-66
2021/11/23 09:14:18;;;;;;;6.97;2.90;;;;;;;-144.57;100.00;62443.72;5048786;28;20068;-66
2021/11/23 09:16:44;;;;;;;5.55;2.80;;;;;;;-144.57;100.00;62443.72;5049709;28;20083;-65
2021/11/23 09:19:10;;;;;;;11.05;2.65;;;;;;;-144.57;100.00;62443.72;5050772;28;20536;-67
2021/11/23 09:21:36;;;;;;;4.18;2.95;;;;;;;-144.57;100.00;62443.72;5049554;28;20060;-67
2021/11/23 09:24:02;;;;;;;6.50;3.45;;;;;;;-144.57;100.00;62443.72;5051232;28;20498;-65
2021/11/23 09:26:28;;;;;;;5.35;3.70;;;;;;;-144.57;100.00;62443.72;5047038;28;20492;-65
2021/11/23 09:28:54;;;;;;;7.78;3.97;;;;;;;-144.57;100.00;62443.72;5047711;28;20048;-66
2021/11/23 09:31:21;;;;;;;11.48;4.72;;;;;;;-144.57;100.00;62443.72;5047164;28;20066;-66
2021/11/23 09:33:47;;;;;;;7.50;3.60;;;;;;;-144.57;100.00;62443.72;5046583;28;20114;-66
2021/11/23 09:36:13;;;;;;;5.20;3.45;;;;;;;-144.57;100.00;62443.72;5046765;28;20053;-66
2021/11/23 09:38:39;;;;;;;5.03;3.10;;;;;;;-144.57;100.00;62443.72;5047076;28;20060;-66
2021/11/23 09:41:06;;;;;;;6.78;3.88;;;;;;;-144.57;100.00;62443.72;5048216;28;20647;-65
2021/11/23 09:43:32;;;;;;;7.25;3.90;;;;;;;-144.57;100.00;62443.72;5047959;28;20106;-64
2021/11/23 09:45:58;;;;;;;7.93;4.22;;;;;;;-144.57;100.00;62443.72;5028501;28;20052;-66
2021/11/23 09:48:24;;;;;;;6.07;3.40;;;;;;;-144.57;100.00;62443.72;5025686;28;20053;-67
2021/11/23 09:50:51;;;;;;;8.70;3.65;;;;;;;-144.57;100.00;62443.72;5047225;28;20069;-65
2021/11/23 09:53:18;;;;;;;7.65;2.90;;;;;;;-144.57;100.00;62443.72;5048067;28;20049;-64
2021/11/23 09:55:45;;;;;;;5.07;3.35;;;;;;;-144.57;100.00;62443.72;5046192;28;20041;-66
2021/11/23 09:58:13;;;;;;;7.53;3.47;;;;;;;-144.57;100.00;62443.72;5045327;28;20045;-65
2021/11/23 10:00:41;;;;;;;5.05;2.83;;;;;;;-144.57;100.00;62443.72;5046892;28;20145;-66
2021/11/23 10:03:18;;;;;;;7.50;3.58;;;;;;;-144.57;100.00;62443.72;5045264;28;20052;-66
2021/11/23 10:05:44;;;;;;;8.98;3.40;;;;;;;-144.57;100.00;62443.72;5046828;28;20048;-64
2021/11/23 10:08:16;;;;;;;7.28;3.40;;;;;;;-144.57;100.00;62443.72;5047558;28;20072;-65
2021/11/23 10:10:51;;;;;;;5.97;3.55;;;;;;;-144.57;100.00;62443.72;5046583;28;20064;-66
2021/11/23 10:13:19;;;;;;;9.25;3.97;;;;;;;-144.57;100.00;62443.72;5044892;28;20418;-66
2021/11/23 10:15:46;;;;;;;7.97;3.67;;;;;;;-144.57;100.00;62443.72;5049604;28;20045;-65
2021/11/23 10:18:16;;;;;;;7.55;3.42;;;;;;;-144.57;100.00;62443.72;5028688;28;20499;-65
2021/11/23 10:20:48;;;;;;;6.82;3.28;;;;;;;-144.57;100.00;62443.72;5028463;28;20049;-64
2021/11/23 10:23:24;;;;;;;6.30;3.33;;;;;;;-144.57;100.00;62443.72;5027977;28;20045;-65
2021/11/23 10:26:05;;;;;;;6.15;3.22;;;;;;;-144.57;100.00;62443.72;5027764;28;20522;-64
2021/11/23 10:28:31;;;;;;;7.88;3.15;;;;;;;-144.57;100.00;62443.72;5027767;28;20665;-65
2021/11/23 10:30:59;;;;;;;7.10;3.38;;;;;;;-144.57;100.00;62443.72;5029928;28;20141;-65
2021/11/23 10:33:25;;;;;;;6.75;3.70;;;;;;;-144.57;100.00;62443.72;5027583;28;20576;-65
2021/11/23 10:35:56;;;;;;;5.68;3.25;;;;;;;-144.57;100.00;62443.72;5026458;28;20053;-64
2021/11/23 10:38:23;;;;;;;8.88;3.42;;;;;;;-144.57;100.00;62443.72;5026006;28;20065;-66
2021/11/23 10:40:49;;;;;;;5.40;3.13;;;;;;;-144.57;100.00;62443.72;5025664;28;20040;-64
2021/11/23 10:43:21;;;;;;;6.22;3.35;;;;;;;-144.57;100.00;62443.72;5024260;28;20064;-65
2021/11/23 10:45:51;;;;;;;7.00;3.17;;;;;;;-144.57;100.00;62443.72;5026130;28;20499;-64
2021/11/23 10:48:19;;;;;;;5.07;3.13;;;;;;;-144.57;100.00;62443.72;5008577;28;20045;-66
2021/11/23 10:51:03;;;;;;;5.68;2.75;;;;;;;-144.57;100.00;62443.72;5028013;28;20081;-66
2021/11/23 10:53:30;;;;;;;5.75;3.40;;;;;;;-144.57;100.00;62443.72;5026588;28;20099;-67
2021/11/23 10:56:05;;;;;;;9.35;3.65;;;;;;;-144.57;100.00;62443.72;5025479;28;20079;-66
2021/11/23 10:58:31;;;;;;;10.38;3.60;;;;;;;-144.57;100.00;62443.72;5027051;28;20046;-65
2021/11/23 11:00:57;;;;;;;8.18;3.35;;;;;;;-144.57;100.00;62443.72;5027060;28;20384;-65
2021/11/23 11:03:25;;;;;;;7.05;3.40;;;;;;;-144.57;100.00;62443.72;5024886;28;20486;-64
2021/11/23 11:05:51;;;;;;;6.75;3.22;;;;;;;-144.57;100.00;62443.72;5010129;28;20398;-68
2021/11/23 11:08:22;;;;;;;5.97;3.25;;;;;;;-144.57;100.00;62443.72;5028492;28;20045;-68